Terminal Aerodrome Forecast
Issued by NWS

Home | Current Version | Previous Version | Text Only | Print | Product List | Glossary On
Versions: 1 2 3 4 5 6 7 8 9 10 11 12 13 14 15 16 17
000
FTUS42 KTBW 301742
TAFLAL
TAF
KLAL 301742Z 3018/3118 24010KT P6SM VCTS BKN035CB BKN120
     FM310300 VRB03KT P6SM FEW025 SCT250
     FM311200 22006KT P6SM VCTS SCT030CB BKN080 BKN250=

USA.gov is the U.S. government's official web portal to all federal, state and local government web resources and services.